首页
METAR-TAF:

METAR-TAF

机场 :

大连周水子国际机场

大连, 中华人民共和国

纬度: 38-54N, 经度: 121-38E, 海拔: 97米

当前天气观测

该预报发布于29分钟前的07:30 UTC
风速4节,风向南转西南,在西之间变化
温度 15°C
湿度 94%
气压 1010 hPa
能見度: 8000
散云层高于1300英尺
多云层高于2600英尺

METAR: ZYTL 220730Z 21002MPS 170V260 8000 SCT013 BKN026 15/14 Q1010 NOSIG

时间: 15:59 (07:59 UTC)

预报

该预报发布于4小时和50分钟前的03:09 UTC
预报有效从22日的 06点(UTC)到 23日的 06点(UTC)
风速8节,风向
能見度: 3000
少量云层高于1000英尺
多云层高于3000英尺
小阵雨, 轻雾
成为
从 22日的 07点(UTC)到 22日的 08点(UTC)
风速8节,风向西转西北,有时为19节阵风
能見度: 5000
散云层高于3000英尺
轻雾
短暂存在
从 22日的 06点(UTC)到 22日的 12点(UTC)
能見度: 2000
少量云层高于600英尺
多云层高于2600英尺
轻雾

TAF: ZYTL 220309Z 2206/2306 19004MPS 3000 -SHRA BR FEW010 BKN030 TX20/2206Z TN13/2221Z BECMG 2207/2208 30004G10MPS 5000 BR SCT030 TEMPO 2206/2212 2000 BR FEW006 BKN026

超过4000个机场的气象观测和天气预报(METAR&TAF报告)。

可查询的气象台以黄色和红色小点在地图上表示。

将鼠标移到小点上方,可查看气象台名称。

然后点击查看天气观测和预报。

如需切换地图:点击带黑十字的绿色按钮放大地图;点击带横线的绿色按钮缩小地图;或者点击绿色箭头查看邻近地区的地图。


METAR-TAF: